| time (UTC) | temp F | wind direction | speed MPH | gust MPH | rain 1hr in | rain 24hr in | rain mn in | humidity % | barometer mb |
| 20260509064626 | 60 | 280 | 3.0 | 4.0 | 0.00 | 0.00 | 0.00 | 29 | 1015.1 |
| 20260509063615 | 58 | 280 | 3.0 | 4.0 | 0.00 | 0.00 | 0.00 | 31 | 1015.3 |
| 20260509062626 | 58 | 280 | 4.0 | 7.0 | 0.00 | 0.00 | 0.00 | 34 | 1015.4 |
| 20260509061615 | 58 | 263 | 2.0 | 6.0 | 0.00 | 0.00 | 0.00 | 34 | 1015.3 |
| 20260509060626 | 57 | 24 | 2.0 | 3.0 | 0.00 | 0.00 | 0.00 | 38 | 1015.3 |
| 20260509055627 | 57 | 24 | 1.0 | 3.0 | 0.00 | 0.00 | 0.00 | 40 | 1015.3 |
| 20260509054637 | 57 | 24 | 1.0 | 3.0 | 0.00 | 0.00 | 0.00 | 38 | 1015.1 |
| 20260509053630 | 55 | 24 | 2.0 | 3.0 | 0.00 | 0.00 | 0.00 | 39 | 1015.1 |
| 20260509052617 | 54 | 25 | 1.0 | 4.0 | 0.00 | 0.00 | 0.00 | 43 | 1015.1 |
| 20260509051628 | 55 | 351 | 3.0 | 5.0 | 0.00 | 0.00 | 0.00 | 43 | 1014.9 |
| 20260509050622 | 57 | 308 | 2.0 | 4.0 | 0.00 | 0.00 | 0.00 | 40 | 1014.9 |
| 20260509045642 | 61 | 342 | 3.0 | 5.0 | 0.00 | 0.00 | 0.00 | 33 | 1014.7 |
| 20260509044629 | 63 | 265 | 3.0 | 9.0 | 0.00 | 0.00 | 0.00 | 28 | 1014.7 |
| 20260509043638 | 63 | 277 | 7.0 | 10.0 | 0.00 | 0.00 | 0.00 | 28 | 1014.6 |
| 20260509042626 | 63 | 243 | 7.0 | 10.0 | 0.00 | 0.00 | 0.00 | 28 | 1014.6 |
| 20260509041617 | 63 | 281 | 7.0 | 11.0 | 0.00 | 0.00 | 0.00 | 29 | 1014.4 |
| 20260509040625 | 63 | 309 | 8.0 | 11.0 | 0.00 | 0.00 | 0.00 | 30 | 1014.6 |
| 20260509035617 | 64 | 265 | 7.0 | 11.0 | 0.00 | 0.00 | 0.00 | 28 | 1014.6 |
| 20260509034625 | 63 | 287 | 4.0 | 8.0 | 0.00 | 0.00 | 0.00 | 29 | 1014.1 |
| 20260509033635 | 63 | 260 | 5.0 | 8.0 | 0.00 | 0.00 | 0.00 | 28 | 1014.1 |
| 20260509032623 | 63 | 298 | 6.0 | 9.0 | 0.00 | 0.00 | 0.00 | 28 | 1014.2 |
| 20260509031629 | 63 | 296 | 4.0 | 9.0 | 0.00 | 0.00 | 0.00 | 27 | 1014.1 |
| 20260509030616 | 63 | 277 | 6.0 | 9.0 | 0.00 | 0.00 | 0.00 | 27 | 1014.0 |
| 20260509025618 | 62 | 254 | 5.0 | 9.0 | 0.00 | 0.00 | 0.00 | 30 | 1014.0 |
| 20260509024646 | 64 | 285 | 5.0 | 8.0 | 0.00 | 0.00 | 0.00 | 29 | 1013.7 |
| 20260509023613 | 67 | 291 | 4.0 | 7.0 | 0.00 | 0.00 | 0.00 | 29 | 1013.7 |
| 20260509022617 | 70 | 263 | 5.0 | 8.0 | 0.00 | 0.00 | 0.00 | 26 | 1013.6 |
| 20260509021621 | 71 | 271 | 6.0 | 8.0 | 0.00 | 0.00 | 0.00 | 22 | 1013.4 |
| 20260509020625 | 72 | 252 | 4.0 | 8.0 | 0.00 | 0.00 | 0.00 | 21 | 1013.2 |
| 20260509015639 | 71 | 269 | 4.0 | 9.0 | 0.00 | 0.00 | 0.00 | 28 | 1013.2 |
| 20260509014623 | 71 | 286 | 4.0 | 7.0 | 0.00 | 0.00 | 0.00 | 31 | 1013.2 |
| 20260509013630 | 71 | 240 | 6.0 | 8.0 | 0.00 | 0.00 | 0.00 | 31 | 1013.1 |
| 20260509012622 | 72 | 217 | 7.0 | 9.0 | 0.00 | 0.00 | 0.00 | 28 | 1012.9 |
| 20260509011630 | 73 | 217 | 6.0 | 8.0 | 0.00 | 0.00 | 0.00 | 29 | 1013.0 |
| 20260509010638 | 73 | 186 | 5.0 | 9.0 | 0.00 | 0.00 | 0.00 | 30 | 1013.0 |
| 20260509005615 | 74 | 193 | 9.0 | 12.0 | 0.00 | 0.00 | 0.00 | 28 | 1012.9 |
| 20260509004627 | 75 | 187 | 11.0 | 19.0 | 0.00 | 0.00 | 0.00 | 28 | 1012.6 |
| 20260509003613 | 75 | 206 | 8.0 | 11.0 | 0.00 | 0.00 | 0.00 | 27 | 1012.8 |
| 20260509002641 | 75 | 188 | 8.0 | 12.0 | 0.00 | 0.00 | 0.00 | 26 | 1012.7 |
| 20260509001647 | 76 | 184 | 7.0 | 13.0 | 0.00 | 0.00 | 0.00 | 27 | 1012.9 |
| 20260509000639 | 76 | 180 | 6.0 | 17.0 | 0.00 | 0.00 | 0.00 | 24 | 1012.9 |
| 20260508235622 | 76 | 155 | 8.0 | 14.0 | 0.00 | 0.00 | 0.00 | 25 | 1012.9 |
| 20260508234630 | 76 | 190 | 9.0 | 17.0 | 0.00 | 0.00 | 0.00 | 24 | 1013.0 |
| 20260508233620 | 76 | 189 | 8.0 | 15.0 | 0.00 | 0.00 | 0.00 | 24 | 1012.9 |
| 20260508232628 | 76 | 155 | 7.0 | 12.0 | 0.00 | 0.00 | 0.00 | 26 | 1013.0 |
| 20260508231621 | 76 | 142 | 8.0 | 16.0 | 0.00 | 0.00 | 0.00 | 25 | 1013.1 |
| 20260508230630 | 75 | 141 | 11.0 | 19.0 | 0.00 | 0.00 | 0.00 | 26 | 1013.1 |
| 20260508225628 | 75 | 184 | 10.0 | 16.0 | 0.00 | 0.00 | 0.00 | 26 | 1013.2 |
| 20260508224618 | 75 | 138 | 14.0 | 18.0 | 0.00 | 0.00 | 0.00 | 26 | 1013.2 |
| 20260508223612 | 75 | 166 | 11.0 | 16.0 | 0.00 | 0.00 | 0.00 | 27 | 1013.3 |
| 20260508222622 | 75 | 167 | 12.0 | 18.0 | 0.00 | 0.00 | 0.00 | 26 | 1013.4 |
| 20260508221651 | 76 | 162 | 11.0 | 16.0 | 0.00 | 0.00 | 0.00 | 25 | 1013.5 |
| 20260508220618 | 76 | 180 | 13.0 | 19.0 | 0.00 | 0.00 | 0.00 | 25 | 1013.7 |
| 20260508215619 | 76 | 188 | 11.0 | 17.0 | 0.00 | 0.00 | 0.00 | 25 | 1013.8 |
| 20260508214627 | 76 | 215 | 10.0 | 14.0 | 0.00 | 0.00 | 0.00 | 24 | 1014.0 |
| 20260508213635 | 76 | 292 | 2.0 | 19.0 | 0.00 | 0.00 | 0.00 | 25 | 1014.1 |
| 20260508212622 | 76 | 195 | 7.0 | 13.0 | 0.00 | 0.00 | 0.00 | 22 | 1014.2 |
| 20260508211614 | 76 | 157 | 6.0 | 17.0 | 0.00 | 0.00 | 0.00 | 26 | 1014.4 |
| 20260508210624 | 76 | 12 | 5.0 | 8.0 | 0.00 | 0.00 | 0.00 | 20 | 1014.5 |
| 20260508205626 | 74 | 248 | 6.0 | 15.0 | 0.00 | 0.00 | 0.00 | 20 | 1014.5 |
| 20260508204616 | 75 | 261 | 8.0 | 14.0 | 0.00 | 0.00 | 0.00 | 21 | 1014.7 |
| 20260508203629 | 75 | 233 | 11.0 | 16.0 | 0.00 | 0.00 | 0.00 | 20 | 1014.6 |
| 20260508202639 | 74 | 293 | 5.0 | 19.0 | 0.00 | 0.00 | 0.00 | 20 | 1014.9 |
| 20260508201629 | 74 | 229 | 10.0 | 19.0 | 0.00 | 0.00 | 0.00 | 20 | 1015.0 |
| 20260508200620 | 74 | 229 | 6.0 | 17.0 | 0.00 | 0.00 | 0.00 | 22 | 1015.1 |
| 20260508195645 | 73 | 252 | 7.0 | 13.0 | 0.00 | 0.00 | 0.00 | 22 | 1015.1 |
| 20260508194612 | 73 | 233 | 6.0 | 12.0 | 0.00 | 0.00 | 0.00 | 22 | 1015.1 |
| 20260508193620 | 73 | 273 | 11.0 | 19.0 | 0.00 | 0.00 | 0.00 | 24 | 1015.2 |
| 20260508192648 | 72 | 236 | 12.0 | 16.0 | 0.00 | 0.00 | 0.00 | 24 | 1015.2 |
| 20260508191618 | 72 | 108 | 6.0 | 13.0 | 0.00 | 0.00 | 0.00 | 24 | 1015.5 |
| 20260508190626 | 72 | 253 | 10.0 | 17.0 | 0.00 | 0.00 | 0.00 | 24 | 1015.6 |
| 20260508185626 | 72 | 262 | 8.0 | 12.0 | 0.00 | 0.00 | 0.00 | 23 | 1015.6 |
| 20260508184614 | 72 | 282 | 8.0 | 12.0 | 0.00 | 0.00 | 0.00 | 23 | 1015.8 |
| 20260508183625 | 72 | 326 | 9.0 | 15.0 | 0.00 | 0.00 | 0.00 | 24 | 1015.9 |
| 20260508182613 | 71 | 309 | 7.0 | 13.0 | 0.00 | 0.00 | 0.00 | 25 | 1015.9 |
| 20260508181622 | 71 | 299 | 8.0 | 17.0 | 0.00 | 0.00 | 0.00 | 25 | 1016.1 |
| 20260508180613 | 71 | 308 | 11.0 | 18.0 | 0.00 | 0.00 | 0.00 | 24 | 1016.2 |
| 20260508175650 | 71 | 269 | 6.0 | 15.0 | 0.00 | 0.00 | 0.00 | 25 | 1016.4 |
| 20260508174623 | 71 | 315 | 8.0 | 16.0 | 0.00 | 0.00 | 0.00 | 24 | 1016.5 |
| 20260508173631 | 70 | 298 | 9.0 | 11.0 | 0.00 | 0.00 | 0.00 | 24 | 1016.4 |
| 20260508172615 | 69 | 320 | 7.0 | 10.0 | 0.00 | 0.00 | 0.00 | 24 | 1016.5 |
| 20260508171620 | 69 | 123 | 3.0 | 7.0 | 0.00 | 0.00 | 0.00 | 29 | 1016.6 |
| 20260508170631 | 69 | 98 | 6.0 | 10.0 | 0.00 | 0.00 | 0.00 | 36 | 1016.5 |
| 20260508165649 | 69 | 98 | 3.0 | 9.0 | 0.00 | 0.00 | 0.00 | 31 | 1016.6 |
| 20260508164635 | 68 | 142 | 3.0 | 8.0 | 0.00 | 0.00 | 0.00 | 36 | 1016.5 |
| 20260508163639 | 68 | 134 | 4.0 | 7.0 | 0.00 | 0.00 | 0.00 | 34 | 1016.6 |
| 20260508162623 | 68 | 132 | 4.0 | 8.0 | 0.00 | 0.00 | 0.00 | 31 | 1016.6 |
| 20260508161616 | 67 | 166 | 5.0 | 8.0 | 0.00 | 0.00 | 0.00 | 35 | 1016.6 |
| 20260508160647 | 66 | 105 | 4.0 | 8.0 | 0.00 | 0.00 | 0.00 | 30 | 1016.7 |
| 20260508155625 | 65 | 91 | 4.0 | 6.0 | 0.00 | 0.00 | 0.00 | 35 | 1016.6 |
| 20260508154631 | 64 | 143 | 3.0 | 5.0 | 0.00 | 0.00 | 0.00 | 43 | 1016.6 |
| 20260508153624 | 63 | 144 | 2.0 | 4.0 | 0.00 | 0.00 | 0.00 | 44 | 1016.7 |
| 20260508152614 | 62 | 144 | 2.0 | 4.0 | 0.00 | 0.00 | 0.00 | 44 | 1016.8 |
| 20260508151625 | 61 | 144 | 2.0 | 4.0 | 0.00 | 0.00 | 0.00 | 48 | 1016.7 |
| 20260508150631 | 59 | 72 | 1.0 | 4.0 | 0.00 | 0.00 | 0.00 | 49 | 1016.7 |
| 20260508145632 | 58 | 32 | 3.0 | 4.0 | 0.00 | 0.00 | 0.00 | 51 | 1016.5 |
| 20260508144618 | 56 | 42 | 3.0 | 6.0 | 0.00 | 0.00 | 0.00 | 55 | 1016.6 |
| 20260508143642 | 55 | 32 | 4.0 | 7.0 | 0.00 | 0.00 | 0.00 | 60 | 1016.5 |
| 20260508142612 | 54 | 38 | 4.0 | 6.0 | 0.00 | 0.00 | 0.00 | 64 | 1016.5 |
| 20260508141620 | 53 | 31 | 4.0 | 6.0 | 0.00 | 0.00 | 0.00 | 67 | 1016.4 |
| 20260508140631 | 51 | 30 | 4.0 | 5.0 | 0.00 | 0.00 | 0.00 | 69 | 1016.3 |
| 20260508135646 | 49 | 30 | 4.0 | 6.0 | 0.00 | 0.00 | 0.00 | 70 | 1016.3 |
| 20260508134615 | 48 | 37 | 3.0 | 5.0 | 0.00 | 0.00 | 0.00 | 71 | 1016.3 |
| 20260508133646 | 45 | 38 | 3.0 | 4.0 | 0.00 | 0.00 | 0.00 | 74 | 1016.1 |
| 20260508132619 | 43 | 38 | 2.0 | 4.0 | 0.00 | 0.00 | 0.00 | 72 | 1015.9 |
| 20260508131648 | 43 | 38 | 2.0 | 4.0 | 0.00 | 0.00 | 0.00 | 73 | 1015.9 |
| 20260508130615 | 42 | 360 | 1.0 | 2.0 | 0.00 | 0.00 | 0.00 | 73 | 1015.8 |
| 20260508125615 | 41 | 360 | 0.0 | 2.0 | 0.00 | 0.00 | 0.00 | 75 | 1015.6 |
| 20260508124645 | 40 | 360 | 1.0 | 4.0 | 0.00 | 0.00 | 0.00 | 75 | 1015.4 |
| 20260508123615 | 41 | 39 | 3.0 | 4.0 | 0.00 | 0.00 | 0.00 | 72 | 1015.4 |
| 20260508122641 | 42 | 17 | 2.0 | 5.0 | 0.00 | 0.00 | 0.00 | 69 | 1015.2 |
| 20260508121626 | 44 | 17 | 2.0 | 5.0 | 0.00 | 0.00 | 0.00 | 64 | 1015.2 |
| 20260508120619 | 45 | 34 | 3.0 | 8.0 | 0.00 | 0.00 | 0.00 | 60 | 1015.1 |
| 20260508115618 | 48 | 28 | 5.0 | 8.0 | 0.00 | 0.00 | 0.00 | 55 | 1015.0 |
| 20260508114631 | 50 | 255 | 4.0 | 8.0 | 0.00 | 0.00 | 0.00 | 49 | 1014.8 |
| 20260508113619 | 47 | 35 | 3.0 | 5.0 | 0.00 | 0.00 | 0.00 | 58 | 1014.8 |
| 20260508112629 | 48 | 311 | 1.0 | 3.0 | 0.00 | 0.00 | 0.00 | 55 | 1014.8 |
| 20260508111641 | 49 | 311 | 2.0 | 4.0 | 0.00 | 0.00 | 0.00 | 54 | 1014.6 |
| 20260508110632 | 50 | 360 | 3.0 | 5.0 | 0.00 | 0.00 | 0.00 | 52 | 1014.6 |
| 20260508105631 | 50 | 167 | 1.0 | 3.0 | 0.00 | 0.00 | 0.00 | 50 | 1014.6 |
| 20260508104619 | 50 | 167 | 3.0 | 4.0 | 0.00 | 0.00 | 0.00 | 50 | 1014.5 |
| 20260508103627 | 49 | 289 | 0.0 | 5.0 | 0.00 | 0.00 | 0.00 | 54 | 1014.4 |
| 20260508102621 | 48 | 290 | 4.0 | 5.0 | 0.00 | 0.00 | 0.00 | 55 | 1014.4 |
| 20260508101630 | 48 | 312 | 3.0 | 4.0 | 0.00 | 0.00 | 0.00 | 58 | 1014.4 |
| 20260508100617 | 47 | 19 | 2.0 | 3.0 | 0.00 | 0.00 | 0.00 | 59 | 1014.5 |
| 20260508095620 | 47 | 19 | 2.0 | 4.0 | 0.00 | 0.00 | 0.00 | 59 | 1014.3 |
| 20260508094629 | 50 | 19 | 3.0 | 5.0 | 0.00 | 0.00 | 0.00 | 54 | 1014.2 |
| 20260508093631 | 56 | 36 | 3.0 | 7.0 | 0.00 | 0.00 | 0.00 | 43 | 1014.1 |
| 20260508092617 | 57 | 240 | 6.0 | 9.0 | 0.00 | 0.00 | 0.00 | 38 | 1014.1 |
| 20260508091624 | 56 | 225 | 7.0 | 9.0 | 0.00 | 0.00 | 0.00 | 37 | 1014.1 |
| 20260508090637 | 51 | 225 | 2.0 | 4.0 | 0.00 | 0.00 | 0.00 | 51 | 1014.1 |
| 20260508085614 | 54 | 88 | 1.0 | 4.0 | 0.00 | 0.00 | 0.00 | 48 | 1014.1 |
| 20260508084620 | 59 | 261 | 1.0 | 7.0 | 0.00 | 0.00 | 0.00 | 37 | 1014.1 |
| 20260508083627 | 59 | 271 | 4.0 | 8.0 | 0.00 | 0.00 | 0.00 | 36 | 1014.1 |
| 20260508082619 | 57 | 245 | 4.0 | 8.0 | 0.00 | 0.00 | 0.00 | 41 | 1014.1 |
| 20260508081628 | 53 | 242 | 5.0 | 7.0 | 0.00 | 0.00 | 0.00 | 47 | 1014.1 |
| 20260508080616 | 51 | 208 | 1.0 | 4.0 | 0.00 | 0.00 | 0.00 | 54 | 1014.2 |
| 20260508075631 | 55 | 130 | 2.0 | 5.0 | 0.00 | 0.00 | 0.00 | 47 | 1014.3 |
| 20260508074621 | 55 | 261 | 2.0 | 7.0 | 0.00 | 0.00 | 0.00 | 44 | 1014.2 |
| 20260508073631 | 54 | 272 | 3.0 | 7.0 | 0.00 | 0.00 | 0.00 | 46 | 1014.3 |
| 20260508072642 | 53 | 286 | 3.0 | 5.0 | 0.00 | 0.00 | 0.00 | 48 | 1014.2 |
| 20260508071631 | 54 | 304 | 2.0 | 3.0 | 0.00 | 0.00 | 0.00 | 47 | 1014.3 |
| 20260508070622 | 53 | 304 | 0.0 | 3.0 | 0.00 | 0.00 | 0.00 | 48 | 1014.3 |
| 20260508065642 | 53 | 304 | 2.0 | 4.0 | 0.00 | 0.00 | 0.00 | 51 | 1014.3 |